Terminal Aerodrome Forecast
Issued by NWS

Home | Current Version | Previous Version | Text Only | Print | Product List | Glossary On
Versions: 1 2 3 4 5 6 7 8 9 10 11 12 13 14 15 16 17 18 19 20 21 22 23 24 25 26 27 28 29 30 31 32 33 34 35
000
FTUS45 KGJT 120520
TAFEGE
TAF
KEGE 120520Z 1206/1306 VRB07KT P6SM -SHRA VCTS SCT070CB OVC100
      TEMPO 1206/1208 4SM TSRA SCT050 BKN070CB
     FM120800 11005KT P6SM SCT100 BKN200
     FM121200 00000KT P6SM SCT200
     FM121900 27007KT P6SM SCT080 SCT150
     FM130200 VRB05KT P6SM VCTS SCT070CB BKN110
      AMD LTD TO CLD VIS AND WIND TIL 121300=

USA.gov is the U.S. government's official web portal to all federal, state and local government web resources and services.